createdAt,value
2023-05-10T00:00:51.847Z,32.13
2023-05-10T00:03:20.012Z,33.08
2023-05-10T00:05:47.990Z,34.72
2023-05-10T00:08:16.026Z,33.10
2023-05-10T00:10:43.879Z,32.88
2023-05-10T00:13:11.841Z,32.15
2023-05-10T00:15:41.464Z,32.33
2023-05-10T00:18:09.671Z,34.53
2023-05-10T00:20:37.783Z,34.20
2023-05-10T00:23:05.936Z,32.38
2023-05-10T00:25:33.949Z,33.92
2023-05-10T00:28:02.863Z,35.30
2023-05-10T00:30:30.773Z,33.58
2023-05-10T00:33:00.033Z,34.65
2023-05-10T00:35:28.209Z,33.10
2023-05-10T00:37:56.239Z,35.60
2023-05-10T00:40:24.249Z,34.60
2023-05-10T00:42:56.826Z,34.97
2023-05-10T00:45:25.230Z,35.08
2023-05-10T00:47:56.783Z,36.33
2023-05-10T00:50:26.941Z,36.25
2023-05-10T00:52:55.006Z,35.80
2023-05-10T00:55:23.332Z,36.65
2023-05-10T00:57:51.402Z,38.20
2023-05-10T01:00:21.084Z,38.13
2023-05-10T01:02:50.675Z,37.40
2023-05-10T01:05:19.299Z,39.47
2023-05-10T01:07:50.184Z,37.70
2023-05-10T01:10:18.594Z,41.13
2023-05-10T01:12:48.913Z,39.28
2023-05-10T01:15:17.689Z,42.00
2023-05-10T01:17:47.687Z,39.90
2023-05-10T01:20:17.032Z,41.60
2023-05-10T01:23:06.157Z,42.08
2023-05-10T01:26:04.672Z,40.45
2023-05-10T01:28:52.634Z,39.40
2023-05-10T01:31:25.973Z,39.80
2023-05-10T01:33:59.933Z,38.72
2023-05-10T01:36:33.352Z,39.55
2023-05-10T01:39:04.841Z,39.40
2023-05-10T01:41:41.410Z,39.22
2023-05-10T01:44:16.858Z,38.47
2023-05-10T01:46:45.251Z,38.22
2023-05-10T01:49:22.456Z,38.25
2023-05-10T01:51:55.893Z,38.00
2023-05-10T01:54:25.711Z,36.97
2023-05-10T01:56:59.941Z,38.53
2023-05-10T01:59:31.815Z,37.45
2023-05-10T02:02:01.187Z,37.75
2023-05-10T02:04:33.788Z,37.45
2023-05-10T02:07:01.963Z,36.03
2023-05-10T02:09:30.941Z,36.80
2023-05-10T02:12:00.781Z,39.25
2023-05-10T02:14:31.304Z,39.70
2023-05-10T02:17:00.856Z,37.15
2023-05-10T02:19:31.301Z,37.55
2023-05-10T02:21:59.596Z,39.13
2023-05-10T02:24:29.709Z,39.45
2023-05-10T02:26:58.705Z,38.88
2023-05-10T02:29:27.372Z,39.05
2023-05-10T02:31:56.658Z,38.85
2023-05-10T02:34:25.876Z,39.45
2023-05-10T02:36:55.571Z,38.92
2023-05-10T02:39:24.282Z,39.40
2023-05-10T02:41:52.865Z,40.90
2023-05-10T02:44:21.574Z,39.75
2023-05-10T02:46:49.514Z,40.72
2023-05-10T02:49:17.988Z,41.85
2023-05-10T02:51:51.289Z,41.25
2023-05-10T02:54:22.753Z,40.70
2023-05-10T02:56:53.657Z,41.67
2023-05-10T02:59:21.784Z,42.35
2023-05-10T03:01:49.895Z,41.58
2023-05-10T03:04:18.098Z,41.00
2023-05-10T03:06:46.916Z,42.92
2023-05-10T03:09:16.659Z,41.00
2023-05-10T03:11:56.751Z,43.17
2023-05-10T03:14:35.267Z,42.95
2023-05-10T03:17:09.390Z,41.92
2023-05-10T03:19:44.940Z,43.20
2023-05-10T03:22:15.430Z,43.60
2023-05-10T03:24:43.807Z,42.35
2023-05-10T03:27:13.702Z,44.10
2023-05-10T03:29:42.118Z,43.53
2023-05-10T03:32:10.580Z,43.80
2023-05-10T03:34:43.618Z,45.25
2023-05-10T03:37:11.862Z,44.92
2023-05-10T03:39:40.428Z,46.05
2023-05-10T03:42:12.930Z,45.53
2023-05-10T03:44:42.512Z,45.38
2023-05-10T03:47:10.579Z,45.72
2023-05-10T03:49:38.878Z,46.60
2023-05-10T03:52:07.661Z,46.95
2023-05-10T03:54:36.425Z,48.50
2023-05-10T03:57:05.018Z,48.05
2023-05-10T03:59:33.796Z,47.83
2023-05-10T04:02:03.141Z,46.83
2023-05-10T04:04:31.676Z,46.05
2023-05-10T04:06:59.865Z,44.75
2023-05-10T04:09:27.953Z,42.05
2023-05-10T04:11:56.201Z,42.00
2023-05-10T04:14:24.093Z,42.55
2023-05-10T04:16:52.164Z,42.42
2023-05-10T04:19:21.546Z,43.20
2023-05-10T04:21:49.435Z,42.90
2023-05-10T04:24:17.333Z,43.13
2023-05-10T04:26:45.364Z,44.50
2023-05-10T04:29:13.313Z,43.97
2023-05-10T04:31:41.120Z,43.15
2023-05-10T04:34:09.209Z,46.60
2023-05-10T04:36:38.861Z,44.10
2023-05-10T04:39:06.891Z,45.13
2023-05-10T04:41:34.831Z,44.10
2023-05-10T04:44:02.704Z,43.08
2023-05-10T04:46:30.783Z,42.10
2023-05-10T04:48:58.739Z,41.33
2023-05-10T04:51:26.859Z,40.22
2023-05-10T04:54:05.195Z,39.10
2023-05-10T04:56:34.984Z,38.65
2023-05-10T04:59:03.082Z,39.42
2023-05-10T05:01:31.061Z,38.53
2023-05-10T05:03:59.414Z,39.42
2023-05-10T05:06:28.460Z,37.97
2023-05-10T05:08:57.858Z,37.88
2023-05-10T05:11:26.534Z,38.38
2023-05-10T05:13:54.556Z,36.65
2023-05-10T05:16:22.567Z,37.00
2023-05-10T05:18:50.440Z,38.55
2023-05-10T05:21:19.300Z,38.45
2023-05-10T05:23:47.653Z,43.28
2023-05-10T05:26:17.029Z,39.92
2023-05-10T05:28:45.099Z,42.83
2023-05-10T05:31:13.171Z,42.58
2023-05-10T05:33:41.129Z,42.78
2023-05-10T05:36:09.346Z,43.33
2023-05-10T05:38:37.131Z,44.40
2023-05-10T05:41:05.181Z,43.25
2023-05-10T05:43:37.472Z,44.67
2023-05-10T05:46:06.694Z,43.88
2023-05-10T05:48:34.809Z,45.60
2023-05-10T05:51:02.978Z,44.40
2023-05-10T05:53:31.727Z,45.65
2023-05-10T05:56:00.415Z,45.97
2023-05-10T05:58:29.021Z,46.78
2023-05-10T06:00:58.391Z,46.53
2023-05-10T06:03:26.568Z,46.08
2023-05-10T06:05:54.711Z,43.63
2023-05-10T06:08:22.962Z,46.53
2023-05-10T06:10:50.952Z,45.88
2023-05-10T06:13:19.092Z,45.92
2023-05-10T06:15:47.353Z,45.78
2023-05-10T06:18:16.546Z,47.47
2023-05-10T06:20:44.820Z,45.42
2023-05-10T06:23:13.145Z,43.10
2023-05-10T06:25:41.301Z,43.83
2023-05-10T06:28:09.399Z,41.97
2023-05-10T06:30:38.677Z,41.67
2023-05-10T06:33:06.692Z,42.20
2023-05-10T06:35:36.184Z,41.10
2023-05-10T06:38:04.004Z,42.05
2023-05-10T06:40:32.175Z,42.67
2023-05-10T06:43:00.175Z,42.58
2023-05-10T06:45:28.060Z,41.13
2023-05-10T06:47:56.043Z,42.80
2023-05-10T06:50:24.588Z,41.85
2023-05-10T06:52:53.704Z,42.38
2023-05-10T06:55:21.759Z,43.08
2023-05-10T06:57:49.658Z,43.70
2023-05-10T07:00:18.860Z,43.75
2023-05-10T07:02:48.023Z,46.28
2023-05-10T07:05:16.420Z,45.22
2023-05-10T07:07:44.604Z,47.33
2023-05-10T07:10:13.717Z,46.38
2023-05-10T07:12:42.189Z,48.40
2023-05-10T07:15:11.317Z,47.53
2023-05-10T07:17:40.204Z,47.25
2023-05-10T07:20:10.841Z,45.67
2023-05-10T07:22:38.758Z,45.80
2023-05-10T07:25:07.619Z,45.47
2023-05-10T07:27:36.953Z,45.60
2023-05-10T07:30:05.411Z,46.15
2023-05-10T07:32:35.369Z,44.00
2023-05-10T07:35:04.430Z,41.55
2023-05-10T07:37:32.261Z,40.83
2023-05-10T07:40:00.252Z,41.13
2023-05-10T07:42:29.239Z,38.22
2023-05-10T07:44:59.385Z,37.17
2023-05-10T07:47:27.329Z,33.85
2023-05-10T07:49:55.501Z,32.95
2023-05-10T07:52:23.606Z,32.42
2023-05-10T07:54:51.743Z,33.00
2023-05-10T07:57:20.201Z,31.55
2023-05-10T07:59:48.625Z,31.05
2023-05-10T08:02:18.042Z,26.65
2023-05-10T08:04:46.679Z,26.85
2023-05-10T08:07:14.812Z,25.40
2023-05-10T08:09:42.799Z,22.60
2023-05-10T08:12:10.908Z,21.30
2023-05-10T08:14:38.684Z,16.50
2023-05-10T08:17:06.867Z,16.55
2023-05-10T08:19:36.312Z,15.88
2023-05-10T08:22:04.080Z,15.95
2023-05-10T08:24:32.076Z,14.90
2023-05-10T08:26:59.893Z,15.98
2023-05-10T08:29:30.429Z,15.63
2023-05-10T08:31:58.337Z,15.65
2023-05-10T08:34:26.486Z,15.05
2023-05-10T08:36:55.726Z,14.93
2023-05-10T08:39:30.385Z,14.70
2023-05-10T08:42:04.196Z,13.48
2023-05-10T08:44:33.091Z,15.13
2023-05-10T08:47:02.145Z,14.43
2023-05-10T08:49:33.128Z,13.48
2023-05-10T08:52:05.413Z,13.63
2023-05-10T08:54:34.239Z,13.00
2023-05-10T08:57:04.596Z,12.50
2023-05-10T08:59:32.968Z,12.40
2023-05-10T09:02:01.277Z,11.85
2023-05-10T09:04:30.214Z,14.30
2023-05-10T09:06:58.471Z,14.10
2023-05-10T09:09:27.944Z,14.20
2023-05-10T09:11:56.500Z,13.50
2023-05-10T09:14:25.943Z,13.82
2023-05-10T09:16:55.255Z,15.73
2023-05-10T09:19:23.053Z,15.60
2023-05-10T09:21:51.157Z,15.85
2023-05-10T09:24:19.139Z,15.93
2023-05-10T09:26:51.556Z,15.55
2023-05-10T09:29:19.493Z,15.93
2023-05-10T09:31:49.163Z,16.45
2023-05-10T09:34:21.917Z,16.50
2023-05-10T09:36:54.299Z,16.17
2023-05-10T09:39:22.820Z,15.65
2023-05-10T09:41:51.973Z,16.02
2023-05-10T09:44:20.858Z,16.33
2023-05-10T09:46:53.815Z,15.52
2023-05-10T09:49:22.743Z,15.32
2023-05-10T09:52:01.665Z,15.55
2023-05-10T09:54:29.805Z,15.38
2023-05-10T09:56:59.071Z,15.75
2023-05-10T09:59:27.649Z,15.30
2023-05-10T10:01:57.491Z,15.65
2023-05-10T10:04:25.779Z,14.20
2023-05-10T10:07:04.607Z,14.77
2023-05-10T10:09:33.182Z,15.07
2023-05-10T10:12:03.054Z,14.02
2023-05-10T10:14:31.293Z,13.07
2023-05-10T10:17:08.255Z,12.70
2023-05-10T10:19:38.089Z,9.27
2023-05-10T10:22:06.930Z,9.88
2023-05-10T10:24:35.011Z,9.45
2023-05-10T10:27:11.603Z,10.05
2023-05-10T10:29:52.111Z,10.25
2023-05-10T10:32:24.653Z,9.63
2023-05-10T10:34:52.849Z,9.77
2023-05-10T10:37:21.458Z,10.02
2023-05-10T10:39:50.662Z,9.00
2023-05-10T10:42:57.319Z,8.88
2023-05-10T10:45:27.460Z,8.40
2023-05-10T10:48:23.995Z,8.88
2023-05-10T10:50:58.723Z,8.20
2023-05-10T10:53:28.629Z,9.27
2023-05-10T10:56:08.156Z,8.40
2023-05-10T10:58:36.672Z,8.43
2023-05-10T11:01:16.730Z,8.52
2023-05-10T11:04:18.734Z,9.32
2023-05-10T11:06:46.719Z,9.00
2023-05-10T11:09:14.884Z,9.63
2023-05-10T11:11:56.115Z,8.73
2023-05-10T11:14:24.785Z,8.90
2023-05-10T11:16:54.023Z,8.77
2023-05-10T11:19:22.006Z,9.02
2023-05-10T11:21:51.061Z,9.05
2023-05-10T11:24:20.087Z,9.40
2023-05-10T11:26:48.087Z,9.40
2023-05-10T11:29:16.002Z,9.10
2023-05-10T11:31:47.921Z,9.43
2023-05-10T11:34:27.262Z,9.10
2023-05-10T11:36:56.083Z,9.10
2023-05-10T11:39:28.278Z,7.68
2023-05-10T11:41:56.524Z,8.13
2023-05-10T11:44:24.474Z,8.85
2023-05-10T11:46:52.387Z,8.25
2023-05-10T11:49:20.404Z,9.35
2023-05-10T11:51:49.514Z,8.85
2023-05-10T11:54:17.440Z,8.23
2023-05-10T11:56:45.955Z,7.63
2023-05-10T11:59:16.385Z,8.45
2023-05-10T12:01:44.504Z,8.13
2023-05-10T12:04:12.659Z,7.97
2023-05-10T12:06:42.700Z,7.88
2023-05-10T12:09:11.959Z,7.70
2023-05-10T12:11:43.591Z,7.10
2023-05-10T12:14:12.391Z,7.57
2023-05-10T12:16:40.214Z,7.90
2023-05-10T12:19:10.439Z,7.97
2023-05-10T12:21:40.018Z,7.45
2023-05-10T12:24:08.011Z,7.97
2023-05-10T12:26:37.426Z,7.82
2023-05-10T12:29:16.721Z,7.57
2023-05-10T12:31:58.715Z,9.35
2023-05-10T12:34:27.803Z,8.48
2023-05-10T12:36:56.512Z,7.72
2023-05-10T12:39:24.418Z,6.90
2023-05-10T12:41:53.825Z,7.60
2023-05-10T12:44:21.660Z,7.50
2023-05-10T12:46:49.377Z,8.18
2023-05-10T12:49:17.810Z,6.80
2023-05-10T12:51:45.804Z,6.32
2023-05-10T12:54:13.690Z,5.90
2023-05-10T12:56:41.955Z,5.80
2023-05-10T12:59:11.409Z,6.57
2023-05-10T13:01:39.752Z,6.43
2023-05-10T13:04:07.729Z,7.22
2023-05-10T13:06:36.054Z,5.88
2023-05-10T13:09:04.440Z,5.72
2023-05-10T13:11:32.175Z,5.68
2023-05-10T13:14:00.449Z,5.68
2023-05-10T13:16:29.676Z,5.32
2023-05-10T13:18:57.493Z,5.90
2023-05-10T13:21:26.284Z,5.88
2023-05-10T13:23:54.857Z,6.30
2023-05-10T13:26:22.546Z,8.30
2023-05-10T13:28:52.435Z,8.48
2023-05-10T13:31:20.343Z,9.10
2023-05-10T13:33:49.604Z,9.30
2023-05-10T13:36:17.445Z,9.82
2023-05-10T13:38:45.181Z,9.32
2023-05-10T13:41:13.287Z,10.40
2023-05-10T13:43:41.044Z,7.50
2023-05-10T13:46:08.980Z,5.50
2023-05-10T13:48:38.974Z,5.45
2023-05-10T13:51:09.007Z,5.50
2023-05-10T13:53:37.631Z,5.05
2023-05-10T13:56:05.611Z,5.38
2023-05-10T13:58:33.421Z,6.63
2023-05-10T14:01:01.665Z,6.85
2023-05-10T14:03:29.733Z,6.93
2023-05-10T14:05:57.630Z,5.95
2023-05-10T14:08:28.008Z,6.35
2023-05-10T14:10:57.469Z,5.85
2023-05-10T14:13:25.826Z,5.97
2023-05-10T14:15:55.380Z,5.25
2023-05-10T14:18:23.215Z,5.30
2023-05-10T14:20:51.285Z,5.50
2023-05-10T14:23:20.649Z,5.30
2023-05-10T14:25:49.766Z,4.93
2023-05-10T14:28:18.303Z,5.43
2023-05-10T14:30:46.336Z,5.80
2023-05-10T14:33:14.680Z,6.30
2023-05-10T14:35:42.929Z,6.05
2023-05-10T14:38:11.807Z,6.68
2023-05-10T14:40:39.820Z,6.00
2023-05-10T14:43:08.944Z,5.88
2023-05-10T14:45:36.939Z,6.38
2023-05-10T14:48:05.601Z,5.70
2023-05-10T14:50:37.025Z,6.45
2023-05-10T14:53:05.436Z,5.35
2023-05-10T14:55:33.591Z,6.78
2023-05-10T14:58:01.528Z,6.07
2023-05-10T15:00:31.695Z,6.30
2023-05-10T15:03:00.536Z,5.85
2023-05-10T15:05:28.633Z,5.95
2023-05-10T15:07:57.093Z,6.25
2023-05-10T15:10:24.885Z,5.88
2023-05-10T15:12:52.618Z,6.28
2023-05-10T15:15:20.592Z,5.90
2023-05-10T15:17:49.790Z,6.50
2023-05-10T15:20:17.943Z,6.95
2023-05-10T15:22:45.747Z,7.18
2023-05-10T15:25:13.443Z,7.53
2023-05-10T15:27:41.589Z,6.85
2023-05-10T15:30:10.515Z,7.40
2023-05-10T15:32:40.333Z,7.50
2023-05-10T15:35:11.139Z,7.35
2023-05-10T15:37:38.898Z,7.47
2023-05-10T15:40:08.244Z,7.68
2023-05-10T15:42:36.341Z,7.20
2023-05-10T15:45:05.112Z,8.43
2023-05-10T15:47:33.018Z,8.77
2023-05-10T15:50:01.181Z,8.48
2023-05-10T15:52:30.635Z,8.77
2023-05-10T15:54:58.552Z,9.35
2023-05-10T15:57:26.675Z,8.35
2023-05-10T15:59:54.464Z,9.52
2023-05-10T16:02:23.457Z,9.50
2023-05-10T16:04:51.770Z,9.05
2023-05-10T16:07:19.940Z,9.18
2023-05-10T16:09:49.925Z,9.70
2023-05-10T16:12:18.035Z,10.40
2023-05-10T16:14:46.046Z,10.02
2023-05-10T16:17:15.259Z,10.05
2023-05-10T16:19:43.156Z,9.63
2023-05-10T16:22:11.036Z,10.05
2023-05-10T16:24:38.758Z,10.60
2023-05-10T16:27:08.190Z,10.52
2023-05-10T16:29:36.205Z,9.90
2023-05-10T16:32:03.967Z,9.95
2023-05-10T16:34:31.869Z,10.18
2023-05-10T16:37:07.416Z,10.18
2023-05-10T16:39:43.872Z,9.98
2023-05-10T16:42:18.802Z,9.77
2023-05-10T16:44:50.920Z,10.20
2023-05-10T16:47:23.919Z,9.90
2023-05-10T16:49:51.903Z,9.13
2023-05-10T16:52:19.613Z,10.32
2023-05-10T16:54:47.441Z,10.18
2023-05-10T16:57:16.626Z,9.88
2023-05-10T16:59:44.395Z,8.57
2023-05-10T17:02:12.438Z,9.32
2023-05-10T17:04:42.472Z,9.60
2023-05-10T17:07:13.167Z,9.35
2023-05-10T17:09:47.086Z,10.07
2023-05-10T17:12:27.488Z,8.80
2023-05-10T17:14:56.816Z,9.88
2023-05-10T17:17:39.332Z,9.68
2023-05-10T17:20:09.469Z,9.63
2023-05-10T17:22:37.222Z,9.63
2023-05-10T17:25:05.789Z,9.88
2023-05-10T17:27:35.036Z,9.48
2023-05-10T17:30:02.962Z,9.23
2023-05-10T17:32:30.735Z,9.93
2023-05-10T17:34:58.890Z,9.40
2023-05-10T17:37:26.809Z,9.02
2023-05-10T17:39:54.572Z,8.85
2023-05-10T17:42:22.551Z,9.10
2023-05-10T17:44:51.645Z,9.20
2023-05-10T17:47:20.689Z,9.45
2023-05-10T17:49:48.530Z,9.45
2023-05-10T17:52:16.674Z,9.75
2023-05-10T17:54:44.539Z,9.70
2023-05-10T17:57:12.446Z,9.05
2023-05-10T17:59:40.308Z,9.13
2023-05-10T18:02:09.616Z,9.32
2023-05-10T18:04:37.488Z,9.93
2023-05-10T18:07:05.754Z,8.65
2023-05-10T18:09:34.465Z,9.80
2023-05-10T18:12:03.311Z,10.20
2023-05-10T18:14:40.688Z,9.63
2023-05-10T18:17:10.988Z,9.55
2023-05-10T18:19:38.837Z,10.07
2023-05-10T18:22:08.909Z,9.32
2023-05-10T18:24:41.194Z,9.25
2023-05-10T18:27:09.333Z,8.98
2023-05-10T18:29:37.712Z,9.70
2023-05-10T18:32:06.306Z,9.80
2023-05-10T18:34:35.860Z,9.93
2023-05-10T18:37:07.410Z,10.13
2023-05-10T18:39:36.225Z,10.15
2023-05-10T18:42:05.110Z,9.88
2023-05-10T18:44:33.013Z,10.32
2023-05-10T18:47:01.202Z,10.65
2023-05-10T18:49:29.588Z,9.63
2023-05-10T18:51:58.806Z,10.07
2023-05-10T18:54:26.910Z,9.77
2023-05-10T18:56:54.835Z,10.20
2023-05-10T18:59:22.965Z,11.13
2023-05-10T19:01:51.403Z,11.60
2023-05-10T19:04:19.795Z,11.15
2023-05-10T19:06:47.688Z,10.07
2023-05-10T19:09:17.027Z,10.30
2023-05-10T19:11:44.932Z,11.20
2023-05-10T19:14:12.720Z,10.55
2023-05-10T19:16:41.921Z,10.25
2023-05-10T19:19:10.231Z,9.98
2023-05-10T19:21:38.373Z,10.68
2023-05-10T19:24:06.617Z,10.65
2023-05-10T19:26:36.979Z,10.23
2023-05-10T19:29:05.963Z,10.48
2023-05-10T19:31:34.636Z,11.48
2023-05-10T19:34:03.672Z,11.10
2023-05-10T19:36:31.646Z,11.05
2023-05-10T19:38:59.564Z,12.88
2023-05-10T19:41:28.048Z,13.02
2023-05-10T19:43:57.621Z,12.65
2023-05-10T19:46:25.522Z,12.13
2023-05-10T19:48:53.843Z,12.18
2023-05-10T19:51:22.170Z,12.23
2023-05-10T19:53:50.082Z,11.68
2023-05-10T19:56:18.468Z,12.05
2023-05-10T19:58:46.563Z,12.02
2023-05-10T20:01:16.085Z,15.48
2023-05-10T20:03:44.108Z,16.10
2023-05-10T20:06:12.229Z,14.82
2023-05-10T20:08:40.202Z,14.02
2023-05-10T20:11:07.946Z,12.68
2023-05-10T20:13:35.760Z,13.63
2023-05-10T20:16:05.215Z,13.75
2023-05-10T20:18:34.388Z,12.50
2023-05-10T20:21:02.638Z,13.43
2023-05-10T20:23:30.463Z,13.10
2023-05-10T20:25:58.354Z,11.90
2023-05-10T20:28:27.198Z,12.35
2023-05-10T20:30:56.650Z,12.45
2023-05-10T20:33:24.685Z,12.45
2023-05-10T20:35:54.212Z,12.45
2023-05-10T20:38:22.235Z,12.35
2023-05-10T20:40:50.050Z,12.73
2023-05-10T20:43:18.780Z,11.75
2023-05-10T20:45:46.902Z,12.25
2023-05-10T20:48:14.777Z,12.02
2023-05-10T20:50:42.643Z,12.27
2023-05-10T20:53:11.812Z,12.90
2023-05-10T20:55:39.817Z,13.07
2023-05-10T20:58:08.148Z,12.40
2023-05-10T21:00:35.882Z,13.07
2023-05-10T21:03:04.022Z,12.57
2023-05-10T21:05:32.083Z,13.18
2023-05-10T21:08:00.095Z,13.93
2023-05-10T21:10:29.316Z,14.40
2023-05-10T21:12:57.359Z,14.40
2023-05-10T21:15:25.980Z,13.60
2023-05-10T21:17:54.276Z,13.98
2023-05-10T21:20:24.164Z,14.57
2023-05-10T21:22:52.267Z,14.32
2023-05-10T21:25:20.181Z,14.52
2023-05-10T21:27:49.351Z,15.40
2023-05-10T21:30:17.637Z,15.50
2023-05-10T21:32:45.537Z,16.63
2023-05-10T21:35:13.442Z,15.98
2023-05-10T21:37:41.214Z,16.35
2023-05-10T21:40:10.002Z,16.05
2023-05-10T21:42:37.805Z,16.83
2023-05-10T21:45:08.368Z,15.68
2023-05-10T21:47:36.543Z,16.65
2023-05-10T21:50:04.649Z,16.15
2023-05-10T21:52:32.505Z,16.33
2023-05-10T21:55:00.596Z,17.38
2023-05-10T21:57:28.462Z,16.48
2023-05-10T21:59:56.258Z,17.63
2023-05-10T22:02:25.976Z,15.75
2023-05-10T22:04:53.891Z,16.27
2023-05-10T22:07:21.804Z,18.02
2023-05-10T22:09:49.952Z,17.92
2023-05-10T22:12:17.749Z,17.80
2023-05-10T22:14:47.461Z,17.70
2023-05-10T22:17:16.697Z,17.67
2023-05-10T22:19:46.157Z,18.13
2023-05-10T22:22:13.970Z,17.75
2023-05-10T22:24:42.120Z,17.48
2023-05-10T22:27:11.371Z,17.85
2023-05-10T22:29:39.381Z,18.98
2023-05-10T22:32:07.279Z,18.40
2023-05-10T22:34:35.649Z,17.85
2023-05-10T22:37:05.096Z,17.98
2023-05-10T22:39:32.884Z,18.90
2023-05-10T22:42:01.001Z,17.98
2023-05-10T22:44:28.899Z,19.38
2023-05-10T22:46:57.029Z,18.63
2023-05-10T22:49:24.833Z,18.38
2023-05-10T22:51:52.696Z,18.17
2023-05-10T22:54:21.910Z,19.10
2023-05-10T22:56:49.775Z,18.98
2023-05-10T22:59:17.756Z,19.02
2023-05-10T23:01:45.965Z,19.13
2023-05-10T23:04:14.025Z,19.63
2023-05-10T23:06:41.945Z,18.92
2023-05-10T23:09:09.846Z,18.52
2023-05-10T23:11:38.938Z,17.75
2023-05-10T23:14:06.790Z,19.33
2023-05-10T23:16:35.021Z,18.67
2023-05-10T23:19:03.167Z,18.77
2023-05-10T23:21:32.257Z,18.13
2023-05-10T23:24:00.492Z,19.33
2023-05-10T23:26:28.505Z,19.23
2023-05-10T23:28:57.611Z,19.35
2023-05-10T23:31:25.646Z,18.67
2023-05-10T23:33:53.458Z,19.50
2023-05-10T23:36:21.382Z,19.25
2023-05-10T23:38:49.237Z,18.20
2023-05-10T23:41:17.217Z,18.40
2023-05-10T23:43:45.008Z,18.42
2023-05-10T23:46:14.403Z,19.02
2023-05-10T23:48:42.156Z,19.65
2023-05-10T23:51:10.035Z,19.00
2023-05-10T23:53:38.380Z,18.33
2023-05-10T23:56:07.596Z,17.45
2023-05-10T23:58:35.569Z,19.75
